Time;durP1;ratioP1;P1;durP2;ratioP2;P2;SDS_P1;SDS_P2;PMS_P1;PMS_P2;Temp;Humidity;BMP_temperature;BMP_pressure;BME280_temperature;BME280_humidity;BME280_pressure;Samples;Min_cycle;Max_cycle;Signal;HPM_P1;HPM_P2
2022/01/12 00:00:56;;;;;;;48.75;25.55;;;3.60;99.90;;;;;;5128662;27;20494;-63
2022/01/12 00:03:21;;;;;;;58.25;27.83;;;3.60;99.90;;;;;;5129307;27;20035;-63
2022/01/12 00:41:09;;;;;;;69.65;31.10;;;3.60;99.90;;;;;;5184861;24;20159;-75
2022/01/12 00:43:37;;;;;;;70.07;30.90;;;3.70;99.90;;;;;;4802048;29;20050;-76
2022/01/12 00:46:03;;;;;;;81.00;31.73;;;3.70;99.90;;;;;;4804044;29;20491;-75
2022/01/12 00:48:29;;;;;;;59.22;29.40;;;3.70;99.90;;;;;;4804362;29;20054;-75
2022/01/12 00:50:55;;;;;;;61.92;26.55;;;3.70;99.90;;;;;;4805599;29;20059;-75
2022/01/12 00:53:20;;;;;;;52.67;28.05;;;3.70;99.90;;;;;;4808220;29;20050;-75
2022/01/12 00:55:46;;;;;;;63.30;28.58;;;4.10;99.90;;;;;;4801757;29;20050;-75
2022/01/12 00:58:12;;;;;;;59.17;29.20;;;3.70;99.90;;;;;;4802443;29;20046;-75
2022/01/12 01:00:38;;;;;;;51.38;26.10;;;3.70;99.90;;;;;;4803629;29;20098;-75
2022/01/12 01:03:04;;;;;;;65.32;29.58;;;3.70;99.90;;;;;;4803485;29;20119;-75
2022/01/12 01:05:32;;;;;;;58.20;29.17;;;3.70;99.90;;;;;;4801315;29;20054;-76
2022/01/12 01:07:58;;;;;;;73.20;29.92;;;3.70;99.90;;;;;;4803272;29;20046;-75
2022/01/12 01:10:38;;;;;;;62.83;30.45;;;3.70;99.90;;;;;;4803005;29;20130;-76
2022/01/12 01:13:04;;;;;;;71.15;29.65;;;3.80;99.90;;;;;;4802336;29;20078;-76
2022/01/12 01:15:54;;;;;;;92.28;31.45;;;3.80;99.90;;;;;;4802962;29;20129;-75
2022/01/12 01:26:33;;;;;;;58.08;27.52;;;3.80;99.90;;;;;;4804765;29;20054;-75
2022/01/12 01:28:58;;;;;;;64.35;29.73;;;3.80;99.90;;;;;;4804687;29;20047;-75
2022/01/12 01:31:30;;;;;;;71.25;30.58;;;3.80;99.90;;;;;;4804253;29;20184;-75
2022/01/12 01:33:56;;;;;;;82.43;31.20;;;3.80;99.90;;;;;;4803011;29;20092;-75
2022/01/12 01:36:27;;;;;;;94.97;32.70;;;3.90;99.90;;;;;;4802525;29;20058;-75
2022/01/12 01:38:52;;;;;;;96.88;31.42;;;3.80;99.90;;;;;;4804297;29;20082;-75
2022/01/12 01:41:20;;;;;;;76.53;32.20;;;4.00;99.90;;;;;;4803265;29;20094;-75
2022/01/12 01:44:19;;;;;;;83.15;30.85;;;3.80;99.90;;;;;;4804131;29;20058;-75
2022/01/12 01:54:59;;;;;;;113.70;36.80;;;3.80;99.90;;;;;;4801070;29;20407;-75
2022/01/12 01:57:25;;;;;;;69.15;30.08;;;3.90;99.90;;;;;;4804267;29;20062;-75
2022/01/12 01:59:51;;;;;;;101.60;33.33;;;3.90;99.90;;;;;;4803202;29;20061;-75
2022/01/12 02:02:17;;;;;;;81.32;31.60;;;4.10;99.90;;;;;;4805490;29;20123;-75
2022/01/12 02:04:43;;;;;;;123.05;35.53;;;3.90;99.90;;;;;;4805899;29;20457;-75
2022/01/12 02:07:08;;;;;;;95.57;32.17;;;3.80;99.90;;;;;;4805997;29;20038;-75
2022/01/12 02:09:37;;;;;;;90.05;33.42;;;3.80;99.90;;;;;;4806773;29;20176;-75
2022/01/12 02:12:03;;;;;;;99.45;32.67;;;3.80;99.90;;;;;;4806951;29;20120;-75
2022/01/12 02:14:29;;;;;;;90.47;33.78;;;3.80;99.90;;;;;;4807810;29;20050;-75
2022/01/12 02:17:07;;;;;;;75.45;31.95;;;4.00;99.90;;;;;;4806750;29;20115;-75
2022/01/12 02:20:10;;;;;;;87.15;32.95;;;3.80;99.90;;;;;;4807905;29;20047;-75
2022/01/12 02:36:33;;;;;;;106.70;33.15;;;4.30;99.90;;;;;;4806219;29;20077;-75
2022/01/12 02:41:44;;;;;;;103.57;32.42;;;4.00;99.90;;;;;;4802227;29;20093;-75
2022/01/12 02:54:48;;;;;;;89.82;32.70;;;3.90;99.90;;;;;;4803963;29;20047;-75
2022/01/12 02:57:14;;;;;;;168.75;37.33;;;3.90;99.90;;;;;;4805241;29;20039;-75
2022/01/12 02:59:59;;;;;;;101.75;33.40;;;3.90;99.90;;;;;;4804107;29;20050;-75
2022/01/12 03:02:31;;;;;;;125.65;35.42;;;3.90;99.90;;;;;;4803117;29;20129;-75
2022/01/12 03:07:37;;;;;;;173.68;39.08;;;4.00;99.90;;;;;;4803324;29;20125;-75
2022/01/12 03:10:04;;;;;;;136.32;36.53;;;4.00;99.90;;;;;;4805551;29;20503;-75
2022/01/12 03:12:30;;;;;;;176.48;37.35;;;4.00;99.90;;;;;;4802933;29;20049;-75
2022/01/12 03:14:55;;;;;;;92.28;31.08;;;4.00;99.90;;;;;;4805030;29;20059;-75
2022/01/12 03:17:21;;;;;;;108.43;34.20;;;4.20;99.90;;;;;;4806072;29;20059;-75
2022/01/12 03:19:47;;;;;;;124.13;33.75;;;4.10;99.90;;;;;;4805124;29;20058;-75
2022/01/12 03:22:13;;;;;;;201.05;39.42;;;4.00;99.90;;;;;;4789591;29;20051;-75
2022/01/12 03:24:38;;;;;;;223.60;40.45;;;4.00;99.90;;;;;;4805654;29;20057;-75
2022/01/12 03:27:06;;;;;;;174.30;38.88;;;4.40;99.90;;;;;;4802577;29;20049;-75
2022/01/12 03:29:32;;;;;;;123.68;32.20;;;4.00;99.90;;;;;;4805244;29;20053;-75
2022/01/12 03:32:00;;;;;;;164.77;37.13;;;4.30;99.90;;;;;;4804502;29;20043;-74
2022/01/12 03:34:31;;;;;;;231.68;41.90;;;4.20;99.90;;;;;;4806011;29;20071;-74
2022/01/12 03:37:28;;;;;;;174.35;37.45;;;4.10;99.90;;;;;;4807217;29;20061;-75
2022/01/12 03:39:54;;;;;;;147.65;36.58;;;4.10;99.90;;;;;;4804983;29;20047;-75
2022/01/12 03:42:20;;;;;;;100.30;33.30;;;4.10;99.90;;;;;;4802200;29;20058;-74
2022/01/12 03:44:46;;;;;;;101.30;33.38;;;4.10;99.90;;;;;;4803506;29;20055;-75
2022/01/12 03:47:11;;;;;;;213.25;40.20;;;4.10;99.90;;;;;;4789325;29;20049;-75
2022/01/12 03:49:37;;;;;;;130.55;34.78;;;4.10;99.90;;;;;;4803344;29;20881;-75
2022/01/12 03:52:03;;;;;;;113.15;34.50;;;4.10;99.90;;;;;;4802456;29;20058;-75
2022/01/12 03:54:29;;;;;;;218.27;40.58;;;4.10;99.90;;;;;;4787609;29;20054;-74
2022/01/12 03:56:55;;;;;;;109.18;34.42;;;4.20;99.90;;;;;;4801631;29;20062;-75
2022/01/12 03:59:21;;;;;;;146.15;35.42;;;4.10;99.90;;;;;;4803938;29;20054;-75
2022/01/12 04:01:46;;;;;;;151.50;36.67;;;4.10;99.90;;;;;;4803491;29;20047;-74
2022/01/12 04:04:20;;;;;;;118.28;35.75;;;4.10;99.90;;;;;;4803373;29;20047;-75
2022/01/12 04:09:30;;;;;;;123.38;34.85;;;4.10;99.90;;;;;;4803339;29;20057;-75
2022/01/12 04:11:56;;;;;;;124.60;36.17;;;4.10;99.90;;;;;;4803995;29;20047;-74
2022/01/12 04:14:21;;;;;;;178.68;39.00;;;4.10;99.90;;;;;;4803331;29;20095;-75
2022/01/12 04:16:47;;;;;;;121.85;34.15;;;4.10;99.90;;;;;;4804047;29;20528;-75
2022/01/12 04:19:13;;;;;;;131.90;35.17;;;4.10;99.90;;;;;;4803280;29;20416;-75
2022/01/12 04:21:45;;;;;;;226.48;39.05;;;4.20;99.90;;;;;;4789134;29;20161;-75
2022/01/12 04:24:11;;;;;;;202.93;38.83;;;4.40;99.90;;;;;;4804445;29;20629;-74
2022/01/12 04:26:36;;;;;;;181.30;37.05;;;4.30;99.90;;;;;;4801580;29;20130;-74
2022/01/12 04:29:03;;;;;;;111.18;33.20;;;4.20;99.90;;;;;;4790699;29;20049;-75
2022/01/12 04:31:28;;;;;;;132.38;35.17;;;4.20;99.90;;;;;;4804460;29;20053;-74
2022/01/12 04:33:54;;;;;;;105.57;33.35;;;4.20;99.90;;;;;;4804251;29;20066;-72
2022/01/12 04:36:19;;;;;;;183.48;36.88;;;4.10;99.90;;;;;;4802972;29;20118;-75
2022/01/12 04:38:46;;;;;;;135.63;33.65;;;4.10;99.90;;;;;;4803059;29;20046;-74
2022/01/12 04:41:13;;;;;;;226.88;39.97;;;4.30;99.90;;;;;;4803920;29;20066;-75
2022/01/12 04:43:41;;;;;;;111.95;34.55;;;4.20;99.90;;;;;;4804900;29;20055;-74
2022/01/12 04:51:07;;;;;;;112.68;32.95;;;4.20;99.90;;;;;;4806311;29;20054;-74
2022/01/12 04:53:33;;;;;;;106.63;33.47;;;4.20;99.90;;;;;;4803582;29;20392;-74
2022/01/12 04:55:59;;;;;;;86.22;29.65;;;4.60;99.90;;;;;;4803792;29;20510;-74
2022/01/12 04:58:27;;;;;;;105.35;32.38;;;4.30;99.90;;;;;;4805690;29;20047;-74
2022/01/12 05:00:57;;;;;;;88.95;30.70;;;4.30;99.90;;;;;;4805605;29;20058;-74
2022/01/12 05:06:37;;;;;;;85.03;29.88;;;4.20;99.90;;;;;;4804271;29;20404;-74
2022/01/12 05:14:13;;;;;;;95.43;30.55;;;4.30;99.90;;;;;;4817612;29;20060;-75
2022/01/12 05:16:39;;;;;;;151.38;32.58;;;4.10;99.90;;;;;;4803492;29;20054;-74
2022/01/12 05:19:05;;;;;;;89.32;29.20;;;4.40;99.90;;;;;;4805976;29;20133;-74
2022/01/12 05:21:31;;;;;;;77.20;24.90;;;4.80;99.90;;;;;;4816533;29;20061;-74
2022/01/12 05:24:00;;;;;;;71.15;25.13;;;4.00;99.90;;;;;;4803859;29;20046;-74
2022/01/12 05:26:26;;;;;;;67.65;26.23;;;4.00;99.90;;;;;;4804264;29;20094;-74
2022/01/12 05:28:51;;;;;;;89.72;27.85;;;4.00;99.90;;;;;;4816989;29;20087;-74
2022/01/12 05:31:17;;;;;;;79.72;27.88;;;3.90;99.90;;;;;;4802404;29;20160;-74
2022/01/12 05:33:47;;;;;;;86.80;27.63;;;3.90;99.90;;;;;;4800786;29;20651;-74
2022/01/12 05:36:15;;;;;;;108.60;27.50;;;3.90;99.90;;;;;;4800612;29;20121;-74
2022/01/12 05:38:41;;;;;;;124.75;29.30;;;3.90;99.90;;;;;;4818763;29;20050;-74
2022/01/12 05:41:06;;;;;;;69.97;26.00;;;4.10;99.90;;;;;;4805753;29;20048;-74
2022/01/12 05:43:35;;;;;;;64.20;24.80;;;4.00;99.90;;;;;;4803840;29;20057;-74
2022/01/12 05:46:10;;;;;;;116.38;28.42;;;4.00;99.90;;;;;;4804122;29;20058;-74
2022/01/12 05:51:25;;;;;;;85.38;26.25;;;4.00;99.90;;;;;;4801207;29;20502;-74
2022/01/12 05:53:52;;;;;;;79.15;25.45;;;4.00;99.90;;;;;;4800569;29;21216;-74
2022/01/12 05:56:18;;;;;;;121.53;29.42;;;4.10;99.90;;;;;;4802779;29;20888;-74
2022/01/12 05:58:43;;;;;;;83.20;26.15;;;4.00;99.90;;;;;;4800777;29;20059;-74
2022/01/12 06:01:09;;;;;;;82.07;27.40;;;4.00;99.90;;;;;;4801951;29;20050;-74
2022/01/12 06:03:35;;;;;;;102.13;29.42;;;4.10;99.90;;;;;;4801635;29;20065;-74
2022/01/12 06:06:01;;;;;;;70.13;26.15;;;4.00;99.90;;;;;;4785968;29;20047;-74
2022/01/12 06:08:26;;;;;;;68.85;25.40;;;4.70;99.90;;;;;;4799833;29;20088;-75
2022/01/12 06:10:52;;;;;;;96.30;27.55;;;4.00;99.90;;;;;;4814779;29;20125;-74
2022/01/12 06:13:18;;;;;;;89.45;27.50;;;4.10;99.90;;;;;;4800992;29;20070;-74
2022/01/12 06:15:44;;;;;;;69.70;24.23;;;4.10;99.90;;;;;;4800965;29;20118;-74
2022/01/12 06:18:09;;;;;;;74.95;25.08;;;4.10;99.90;;;;;;4801196;29;20047;-74
2022/01/12 06:20:35;;;;;;;86.55;26.45;;;4.10;99.90;;;;;;4801060;29;20502;-74
2022/01/12 06:23:01;;;;;;;72.57;24.73;;;4.10;99.90;;;;;;4801753;29;20063;-74
2022/01/12 06:25:26;;;;;;;70.00;24.92;;;4.20;99.90;;;;;;4801776;29;20050;-74
2022/01/12 06:27:59;;;;;;;72.22;26.08;;;4.20;99.90;;;;;;4802699;29;20046;-74
2022/01/12 06:32:57;;;;;;;85.55;26.00;;;4.20;99.90;;;;;;4799135;29;20043;-74
2022/01/12 06:35:23;;;;;;;75.85;24.42;;;4.20;99.90;;;;;;4801331;29;20484;-74
2022/01/12 06:37:49;;;;;;;64.53;23.38;;;4.20;99.90;;;;;;4799616;29;20393;-74
2022/01/12 06:40:16;;;;;;;64.20;24.33;;;4.20;99.90;;;;;;4799181;29;20096;-74
2022/01/12 06:42:42;;;;;;;62.28;22.95;;;4.30;99.90;;;;;;4796724;29;20077;-74
2022/01/12 06:45:09;;;;;;;89.50;24.63;;;4.20;99.90;;;;;;4800265;29;20770;-74
2022/01/12 06:47:35;;;;;;;73.53;23.00;;;4.10;99.90;;;;;;4800234;29;20043;-74
2022/01/12 06:50:01;;;;;;;76.80;24.25;;;4.00;99.90;;;;;;4805686;29;20111;-74
2022/01/12 06:52:26;;;;;;;61.22;21.65;;;4.00;99.90;;;;;;4803959;29;20377;-74
2022/01/12 06:54:52;;;;;;;51.08;20.60;;;3.90;99.90;;;;;;4802537;29;20081;-74
2022/01/12 06:57:18;;;;;;;52.70;20.35;;;3.80;99.90;;;;;;4804157;29;20062;-74
2022/01/12 06:59:44;;;;;;;49.67;20.08;;;3.80;99.90;;;;;;4801393;29;20065;-74
2022/01/12 07:02:09;;;;;;;54.92;21.10;;;3.70;99.90;;;;;;4801688;29;20070;-74
2022/01/12 07:04:35;;;;;;;80.20;23.10;;;3.60;99.90;;;;;;4803030;29;20118;-74
2022/01/12 07:07:02;;;;;;;52.58;20.23;;;3.50;99.90;;;;;;4788044;29;20483;-74
2022/01/12 07:09:28;;;;;;;43.72;18.90;;;3.40;99.90;;;;;;4802021;29;20074;-74
2022/01/12 07:11:54;;;;;;;48.90;19.05;;;3.30;99.90;;;;;;4804729;29;20823;-74
2022/01/12 07:14:19;;;;;;;37.50;18.95;;;3.20;99.90;;;;;;4802540;29;20055;-73
2022/01/12 07:16:45;;;;;;;57.20;19.52;;;3.20;99.90;;;;;;4803930;29;20047;-74
2022/01/12 07:19:11;;;;;;;64.50;20.38;;;3.10;99.90;;;;;;4801180;29;20495;-74
2022/01/12 07:21:37;;;;;;;62.47;19.05;;;3.00;99.90;;;;;;4803149;29;20065;-74
2022/01/12 07:24:03;;;;;;;43.35;17.70;;;3.00;99.90;;;;;;4787341;29;20566;-74
2022/01/12 07:26:29;;;;;;;56.10;18.65;;;2.90;99.90;;;;;;4818184;29;20078;-74
2022/01/12 07:28:56;;;;;;;61.90;20.23;;;2.80;99.90;;;;;;4801534;29;20046;-75
2022/01/12 07:31:22;;;;;;;78.13;21.25;;;3.20;99.90;;;;;;4802614;29;20666;-74
2022/01/12 07:33:49;;;;;;;53.78;18.85;;;2.70;99.90;;;;;;4801892;29;20480;-74
2022/01/12 07:36:16;;;;;;;64.80;19.30;;;2.70;99.90;;;;;;4802387;29;20055;-74
2022/01/12 07:38:41;;;;;;;58.92;20.25;;;2.70;99.90;;;;;;4800367;29;21004;-74
2022/01/12 07:41:07;;;;;;;87.18;19.45;;;2.60;99.90;;;;;;4803020;29;20154;-74
2022/01/12 07:43:33;;;;;;;65.88;18.60;;;2.60;99.90;;;;;;4800509;29;20070;-74
2022/01/12 07:45:58;;;;;;;61.63;18.10;;;2.70;99.90;;;;;;4802210;29;20103;-74
2022/01/12 07:48:25;;;;;;;36.00;16.05;;;2.70;99.90;;;;;;4803375;29;21238;-74
2022/01/12 07:50:50;;;;;;;42.20;17.17;;;2.80;99.90;;;;;;4802434;29;20100;-74
2022/01/12 07:53:16;;;;;;;43.75;18.00;;;2.80;99.90;;;;;;4801740;29;20050;-74
2022/01/12 07:55:42;;;;;;;41.90;17.27;;;2.90;99.90;;;;;;4785876;29;20039;-74
2022/01/12 07:58:07;;;;;;;47.95;18.17;;;2.90;99.90;;;;;;4801561;29;20050;-74
2022/01/12 08:00:35;;;;;;;51.80;20.17;;;2.90;99.90;;;;;;4799876;29;20042;-74
2022/01/12 08:03:00;;;;;;;58.13;20.08;;;2.90;99.90;;;;;;4802722;29;20061;-74
2022/01/12 08:05:26;;;;;;;77.32;22.52;;;3.00;99.90;;;;;;4788500;29;20058;-74
2022/01/12 08:07:54;;;;;;;53.88;20.42;;;3.00;99.90;;;;;;4802813;29;20502;-74
2022/01/12 08:10:20;;;;;;;60.95;20.83;;;3.40;99.90;;;;;;4799234;29;20094;-74
2022/01/12 08:12:46;;;;;;;59.40;21.80;;;3.20;99.90;;;;;;4801060;29;20038;-73
2022/01/12 08:15:12;;;;;;;55.17;19.05;;;3.20;99.90;;;;;;4802926;29;20047;-74
2022/01/12 08:17:38;;;;;;;58.47;19.92;;;3.30;99.90;;;;;;4804051;29;20492;-74
2022/01/12 08:20:05;;;;;;;60.33;20.10;;;3.30;99.90;;;;;;4800714;29;20038;-73
2022/01/12 08:22:31;;;;;;;55.28;19.67;;;3.40;99.90;;;;;;4804031;29;20427;-73
2022/01/12 08:24:57;;;;;;;71.95;22.17;;;3.50;99.90;;;;;;4802355;29;20129;-74
2022/01/12 08:27:22;;;;;;;54.08;20.33;;;3.50;99.90;;;;;;4802156;29;20054;-74
2022/01/12 08:29:58;;;;;;;51.38;18.67;;;3.60;99.90;;;;;;4802322;29;20055;-74
2022/01/12 08:32:24;;;;;;;79.63;20.80;;;3.60;99.90;;;;;;4789298;29;20058;-74
2022/01/12 08:34:50;;;;;;;48.95;18.25;;;3.60;99.90;;;;;;4804665;29;20045;-74
2022/01/12 08:37:15;;;;;;;64.13;20.55;;;3.70;99.90;;;;;;4803139;29;20372;-73
2022/01/12 08:39:41;;;;;;;71.95;22.25;;;3.70;99.90;;;;;;4817697;29;20039;-73
2022/01/12 08:42:07;;;;;;;56.47;19.65;;;3.70;99.90;;;;;;4801224;29;20491;-74
2022/01/12 08:44:35;;;;;;;54.47;18.60;;;3.70;99.90;;;;;;4801969;29;20059;-72
2022/01/12 08:47:01;;;;;;;66.45;20.20;;;3.80;99.90;;;;;;4802044;29;20050;-73
2022/01/12 08:49:26;;;;;;;43.85;17.00;;;3.90;99.90;;;;;;4803040;29;20137;-74
2022/01/12 08:51:52;;;;;;;44.50;16.25;;;3.80;99.90;;;;;;4801451;29;20555;-73
2022/01/12 08:54:18;;;;;;;47.22;15.27;;;3.90;99.90;;;;;;4801695;29;20046;-75
2022/01/12 08:56:45;;;;;;;36.67;13.90;;;3.80;99.90;;;;;;4802803;29;20051;-74
2022/01/12 08:59:10;;;;;;;80.30;16.17;;;3.80;99.90;;;;;;4816089;29;20119;-74
2022/01/12 09:01:36;;;;;;;95.05;16.88;;;3.80;99.90;;;;;;4817209;29;20046;-73
2022/01/12 09:04:02;;;;;;;172.15;20.50;;;4.80;99.90;;;;;;4800482;29;20057;-74
2022/01/12 09:06:28;;;;;;;87.05;16.70;;;3.80;99.90;;;;;;4802294;29;20070;-74
2022/01/12 09:08:53;;;;;;;109.30;18.60;;;3.80;99.90;;;;;;4801788;29;20441;-73
2022/01/12 09:11:19;;;;;;;122.20;16.25;;;3.80;99.90;;;;;;4802913;29;20097;-74
2022/01/12 09:13:45;;;;;;;232.32;20.17;;;3.80;99.90;;;;;;4801635;29;20038;-74
2022/01/12 09:16:12;;;;;;;111.85;16.80;;;3.90;99.90;;;;;;4803205;29;20113;-74
2022/01/12 09:18:39;;;;;;;293.88;22.90;;;4.00;99.90;;;;;;4816994;29;20559;-74
2022/01/12 09:21:06;;;;;;;142.80;17.83;;;4.00;99.90;;;;;;4787887;29;20042;-74
2022/01/12 09:23:32;;;;;;;245.27;21.77;;;4.00;99.90;;;;;;4801629;29;20440;-74
2022/01/12 09:25:57;;;;;;;125.68;17.48;;;4.00;99.90;;;;;;4787847;29;20130;-74
2022/01/12 09:28:23;;;;;;;211.95;20.15;;;4.10;99.90;;;;;;4802003;29;20047;-74
2022/01/12 09:30:51;;;;;;;188.00;18.58;;;4.10;99.90;;;;;;4801921;29;20058;-74
2022/01/12 09:33:17;;;;;;;113.07;16.75;;;4.10;99.90;;;;;;4801815;29;20118;-74
2022/01/12 09:35:45;;;;;;;197.93;18.45;;;4.10;99.90;;;;;;4802665;29;20181;-74
2022/01/12 09:38:11;;;;;;;102.30;14.98;;;4.10;99.90;;;;;;4803542;29;20049;-74
2022/01/12 09:40:38;;;;;;;79.10;14.07;;;4.10;99.90;;;;;;4801027;29;21246;-74
2022/01/12 09:43:06;;;;;;;112.07;17.42;;;4.20;99.90;;;;;;4799578;29;20058;-74
2022/01/12 09:45:32;;;;;;;101.85;15.43;;;4.20;99.90;;;;;;4798451;29;20155;-74
2022/01/12 09:47:58;;;;;;;67.15;14.65;;;4.30;99.90;;;;;;4801716;29;20035;-74
2022/01/12 09:50:25;;;;;;;89.22;15.32;;;4.30;99.90;;;;;;4801911;29;20062;-72
2022/01/12 09:52:51;;;;;;;67.38;16.52;;;4.30;99.90;;;;;;4801251;29;20061;-72
2022/01/12 09:55:18;;;;;;;51.90;15.23;;;4.60;99.90;;;;;;4800891;29;20507;-72
2022/01/12 09:57:44;;;;;;;102.18;18.13;;;4.20;99.90;;;;;;4802551;29;20046;-72
2022/01/12 10:00:11;;;;;;;64.50;17.80;;;4.30;99.90;;;;;;4802280;29;20057;-72
2022/01/12 10:02:36;;;;;;;73.18;19.63;;;4.30;99.90;;;;;;4785799;29;20081;-72
2022/01/12 10:05:07;;;;;;;70.43;18.25;;;4.50;99.90;;;;;;4800155;29;20483;-72
2022/01/12 10:07:33;;;;;;;58.10;17.63;;;4.40;99.90;;;;;;4803837;29;20499;-72
2022/01/12 10:10:08;;;;;;;57.17;17.70;;;4.40;99.90;;;;;;4801660;29;20059;-72
2022/01/12 10:12:34;;;;;;;116.13;19.65;;;4.40;99.90;;;;;;4801226;29;20476;-72
2022/01/12 10:15:06;;;;;;;66.57;17.40;;;4.50;99.90;;;;;;4800872;29;20125;-71
2022/01/12 10:17:44;;;;;;;64.20;17.10;;;4.50;99.90;;;;;;4799438;29;20476;-72
2022/01/12 10:20:18;;;;;;;114.93;18.88;;;4.50;99.90;;;;;;4798465;29;20057;-72
2022/01/12 10:22:56;;;;;;;190.52;22.48;;;4.70;99.90;;;;;;4798314;29;20059;-71
2022/01/12 10:25:22;;;;;;;126.68;20.33;;;4.80;99.90;;;;;;4805204;29;20396;-72
2022/01/12 10:27:48;;;;;;;67.57;16.25;;;4.60;99.90;;;;;;4803970;29;20055;-72
2022/01/12 10:30:23;;;;;;;65.50;13.95;;;4.70;99.90;;;;;;4804829;29;20047;-72
2022/01/12 10:33:05;;;;;;;65.30;16.13;;;4.70;99.90;;;;;;4806193;29;20614;-71
2022/01/12 10:35:35;;;;;;;77.10;16.58;;;4.60;99.90;;;;;;4804178;29;20089;-71
2022/01/12 10:38:12;;;;;;;50.60;15.27;;;4.70;99.90;;;;;;4803651;29;20111;-72
2022/01/12 10:40:44;;;;;;;48.65;16.10;;;4.70;99.90;;;;;;4817489;29;20058;-71
2022/01/12 10:43:37;;;;;;;53.58;14.55;;;4.80;99.90;;;;;;4803782;29;20059;-71
2022/01/12 10:46:08;;;;;;;37.30;13.85;;;4.70;99.90;;;;;;4799839;29;20062;-71
2022/01/12 10:48:55;;;;;;;40.05;13.18;;;4.70;99.90;;;;;;4802674;29;20074;-72
2022/01/12 10:51:25;;;;;;;52.70;14.05;;;4.80;99.90;;;;;;4802198;29;20094;-71
2022/01/12 10:53:58;;;;;;;48.63;13.73;;;4.80;99.90;;;;;;4803604;29;20081;-71
2022/01/12 10:56:24;;;;;;;34.90;13.45;;;4.80;99.90;;;;;;4801300;29;20046;-71
2022/01/12 10:58:52;;;;;;;48.63;15.05;;;4.90;99.90;;;;;;4802260;29;20129;-71
2022/01/12 11:01:21;;;;;;;43.83;13.52;;;4.90;99.90;;;;;;4803025;29;20042;-71
2022/01/12 11:03:48;;;;;;;39.35;13.23;;;4.90;99.90;;;;;;4802622;29;20157;-71
2022/01/12 11:06:14;;;;;;;36.95;13.35;;;4.90;99.90;;;;;;4803825;29;20503;-72
2022/01/12 11:08:41;;;;;;;18.48;9.48;;;5.00;99.90;;;;;;4800928;29;20476;-71
2022/01/12 11:11:08;;;;;;;32.72;10.60;;;5.00;99.90;;;;;;4800714;29;20608;-72
2022/01/12 11:13:35;;;;;;;26.30;9.48;;;4.90;99.90;;;;;;4802181;29;20063;-71
2022/01/12 11:16:01;;;;;;;26.83;9.43;;;4.90;99.90;;;;;;4803124;29;20054;-71
2022/01/12 11:18:29;;;;;;;54.53;9.00;;;4.90;99.90;;;;;;4816267;29;20496;-71
2022/01/12 11:21:06;;;;;;;54.05;8.73;;;4.90;99.90;;;;;;4802713;29;20085;-71
2022/01/12 11:23:37;;;;;;;43.67;7.40;;;4.90;99.90;;;;;;4804304;29;20054;-71
2022/01/12 11:26:33;;;;;;;53.58;8.77;;;4.90;99.90;;;;;;4799474;29;20043;-71
2022/01/12 11:28:59;;;;;;;40.33;7.22;;;4.90;99.90;;;;;;4791639;29;20047;-71
2022/01/12 11:31:26;;;;;;;33.45;6.97;;;4.80;99.90;;;;;;4804418;29;20051;-71
2022/01/12 11:33:51;;;;;;;48.70;8.00;;;4.80;99.90;;;;;;4799088;29;20051;-71
2022/01/12 11:36:28;;;;;;;37.22;8.30;;;4.80;99.90;;;;;;4803736;29;20042;-71
2022/01/12 11:39:04;;;;;;;37.17;8.13;;;4.70;99.90;;;;;;4801450;29;20058;-71
2022/01/12 11:41:35;;;;;;;48.63;9.10;;;4.70;99.90;;;;;;4801153;29;20161;-71
2022/01/12 11:44:00;;;;;;;26.92;9.30;;;4.80;99.90;;;;;;4802734;29;20066;-71
2022/01/12 11:46:48;;;;;;;45.45;10.93;;;4.80;99.90;;;;;;4801515;29;20107;-71
2022/01/12 11:49:34;;;;;;;33.22;10.65;;;4.80;99.90;;;;;;4802870;29;20055;-71
2022/01/12 11:52:13;;;;;;;33.45;11.13;;;4.80;99.90;;;;;;4802614;29;20047;-71
2022/01/12 11:54:39;;;;;;;34.75;9.70;;;4.90;99.90;;;;;;4799869;29;20070;-71
2022/01/12 11:57:11;;;;;;;33.33;9.85;;;5.00;99.90;;;;;;4803018;29;20070;-71
2022/01/12 12:00:00;;;;;;;47.53;11.55;;;5.00;99.90;;;;;;4802790;29;20115;-71
2022/01/12 12:02:37;;;;;;;31.55;11.40;;;5.00;99.90;;;;;;4803108;29;20047;-71
2022/01/12 12:05:28;;;;;;;47.38;11.18;;;5.10;99.90;;;;;;4803241;29;20051;-72
2022/01/12 12:08:01;;;;;;;70.63;12.50;;;5.20;99.90;;;;;;4797030;29;20159;-71
2022/01/12 12:10:28;;;;;;;61.67;11.02;;;5.20;99.90;;;;;;4801990;29;20139;-71
2022/01/12 12:12:57;;;;;;;27.02;8.68;;;5.10;99.90;;;;;;4803034;29;20047;-71
2022/01/12 12:15:24;;;;;;;65.15;11.52;;;5.20;99.90;;;;;;4803143;29;20054;-71
2022/01/12 12:17:51;;;;;;;30.38;9.40;;;5.30;99.90;;;;;;4803778;29;20120;-71
2022/01/12 12:20:19;;;;;;;41.15;8.00;;;5.30;99.90;;;;;;4801368;29;20451;-71
2022/01/12 12:22:47;;;;;;;35.38;7.60;;;5.40;99.90;;;;;;4802774;29;20057;-71
2022/01/12 12:25:17;;;;;;;27.60;9.18;;;5.30;99.90;;;;;;4799391;29;20065;-71
2022/01/12 12:27:50;;;;;;;65.55;11.10;;;5.30;99.90;;;;;;4800742;29;20127;-71
2022/01/12 12:30:18;;;;;;;51.05;9.88;;;5.30;99.90;;;;;;4801442;29;20062;-71
2022/01/12 12:32:53;;;;;;;47.13;9.45;;;5.50;99.90;;;;;;4802029;29;20043;-71
2022/01/12 12:35:20;;;;;;;54.22;10.13;;;5.40;99.90;;;;;;4802113;29;20057;-71
2022/01/12 12:37:58;;;;;;;85.68;11.60;;;6.40;99.90;;;;;;4801481;29;20070;-71
2022/01/12 12:40:30;;;;;;;34.10;8.93;;;5.30;99.90;;;;;;4795462;29;20047;-71
2022/01/12 12:43:19;;;;;;;50.47;9.07;;;5.30;99.90;;;;;;4782809;29;20059;-71
2022/01/12 12:45:56;;;;;;;35.88;8.68;;;5.30;99.90;;;;;;4784271;29;20051;-71
2022/01/12 12:48:28;;;;;;;27.38;8.20;;;5.30;99.90;;;;;;4767317;29;20073;-71
2022/01/12 12:51:05;;;;;;;68.75;10.75;;;5.30;99.90;;;;;;4782761;29;20063;-71
2022/01/12 12:53:34;;;;;;;31.10;7.57;;;5.30;99.90;;;;;;4783109;29;20039;-71
2022/01/12 12:56:00;;;;;;;56.90;9.10;;;5.40;99.90;;;;;;4783318;29;20058;-71
2022/01/12 12:58:29;;;;;;;36.83;8.43;;;5.40;99.90;;;;;;4782519;29;20051;-71
2022/01/12 13:01:11;;;;;;;26.92;7.43;;;6.00;99.90;;;;;;4782378;29;20047;-71
2022/01/12 13:03:39;;;;;;;28.65;7.80;;;5.40;99.90;;;;;;4782810;29;20059;-71
2022/01/12 13:06:06;;;;;;;38.38;7.50;;;6.40;99.90;;;;;;4781893;29;20057;-71
2022/01/12 13:08:32;;;;;;;34.95;8.40;;;5.40;99.90;;;;;;4781736;29;20404;-71
2022/01/12 13:11:08;;;;;;;51.05;8.23;;;5.40;99.90;;;;;;4780041;29;20055;-71
2022/01/12 13:13:34;;;;;;;23.40;7.80;;;5.40;99.90;;;;;;4783184;29;20082;-73
2022/01/12 13:16:00;;;;;;;24.25;7.90;;;5.40;99.90;;;;;;4782865;29;20039;-72
2022/01/12 13:18:26;;;;;;;28.48;8.95;;;5.40;99.90;;;;;;4781833;29;20126;-71
2022/01/12 13:21:10;;;;;;;33.58;8.18;;;5.40;99.90;;;;;;4781334;29;20055;-73
2022/01/12 13:23:44;;;;;;;20.83;8.07;;;5.40;99.90;;;;;;4781847;29;20138;-71
2022/01/12 13:26:14;;;;;;;40.72;10.70;;;5.30;99.90;;;;;;4766261;29;20058;-72
2022/01/12 13:28:45;;;;;;;27.77;9.45;;;5.50;99.90;;;;;;4782475;29;20137;-71
2022/01/12 13:31:13;;;;;;;38.80;10.25;;;5.40;99.90;;;;;;4782110;29;20055;-71
2022/01/12 13:33:40;;;;;;;36.00;9.93;;;5.40;99.90;;;;;;4781765;29;20516;-71
2022/01/12 13:36:20;;;;;;;43.63;9.85;;;5.40;99.90;;;;;;4782003;29;20518;-71
2022/01/12 13:38:48;;;;;;;62.20;10.93;;;5.40;99.90;;;;;;4782002;29;20116;-71
2022/01/12 13:41:15;;;;;;;27.40;10.23;;;5.40;99.90;;;;;;4781793;29;20134;-72
2022/01/12 13:43:44;;;;;;;23.63;9.02;;;5.40;99.90;;;;;;4781614;29;20062;-72
2022/01/12 13:46:15;;;;;;;21.55;8.57;;;5.50;99.90;;;;;;4780990;29;20055;-72
2022/01/12 13:49:37;;;;;;;31.52;9.63;;;5.40;99.90;;;;;;4781776;29;20043;-72
2022/01/12 13:51:38;;;;;;;;;;;5.50;99.90;;;;;;4790339;29;20078;-72
2022/01/12 13:54:06;;;;;;;24.98;8.88;;;5.40;99.90;;;;;;4780767;29;19953;-72
2022/01/12 13:56:42;;;;;;;22.90;8.55;;;5.40;99.90;;;;;;4781542;29;20154;-71
2022/01/12 13:59:08;;;;;;;21.52;9.32;;;5.40;99.90;;;;;;4783662;29;20047;-72
2022/01/12 14:01:36;;;;;;;34.88;8.75;;;5.40;99.90;;;;;;4784749;29;20047;-72
2022/01/12 14:06:40;;;;;;;28.77;9.25;;;5.30;99.90;;;;;;4784038;29;20058;-72
2022/01/12 14:09:21;;;;;;;28.73;8.77;;;5.30;99.90;;;;;;4785431;29;20077;-71
2022/01/12 14:11:48;;;;;;;24.35;7.90;;;5.30;99.90;;;;;;4783514;29;20059;-73
2022/01/12 14:14:14;;;;;;;23.63;8.95;;;5.30;99.90;;;;;;4786159;29;20051;-72
2022/01/12 14:16:41;;;;;;;25.30;9.13;;;5.30;99.90;;;;;;4784255;29;20396;-72
2022/01/12 14:19:08;;;;;;;44.53;11.18;;;5.20;99.90;;;;;;4784290;29;20051;-72
2022/01/12 14:21:34;;;;;;;26.20;10.30;;;5.30;99.90;;;;;;4784064;29;20063;-72
2022/01/12 14:24:00;;;;;;;37.55;10.45;;;5.30;99.90;;;;;;4784692;29;20046;-72
2022/01/12 14:26:30;;;;;;;25.92;8.93;;;5.30;99.90;;;;;;4785019;29;20058;-71
2022/01/12 14:28:57;;;;;;;32.15;9.98;;;5.30;99.90;;;;;;4799750;29;20043;-72